Time;durP1;ratioP1;P1;durP2;ratioP2;P2;SDS_P1;SDS_P2;PMS_P1;PMS_P2;Temp;Humidity;BMP_temperature;BMP_pressure;BME280_temperature;BME280_humidity;BME280_pressure;Samples;Min_cycle;Max_cycle;Signal;HPM_P1;HPM_P2
2021/09/06 04:31:37;;;;;;;10.00;8.50;;;11.10;99.90;;;;;;5662129;22;20870;-80
2021/09/06 04:34:02;;;;;;;11.03;8.43;;;11.10;99.90;;;;;;5028901;28;20422;-80
2021/09/06 04:36:28;;;;;;;12.30;8.47;;;11.10;99.90;;;;;;5023412;28;20599;-80
2021/09/06 04:38:53;;;;;;;15.20;9.30;;;11.10;99.90;;;;;;5029203;28;20244;-80
2021/09/06 04:41:19;;;;;;;12.70;9.50;;;11.00;99.90;;;;;;5035730;28;20205;-81
2021/09/06 04:43:47;;;;;;;12.60;9.10;;;11.00;99.90;;;;;;5018219;28;20608;-80
2021/09/06 04:46:13;;;;;;;17.67;11.13;;;11.00;99.90;;;;;;5036008;28;20185;-80
2021/09/06 04:48:38;;;;;;;10.23;9.23;;;10.90;99.90;;;;;;5033937;28;20801;-80
2021/09/06 04:51:04;;;;;;;13.67;9.87;;;10.90;99.90;;;;;;5035449;28;20201;-80
2021/09/06 04:53:29;;;;;;;16.90;8.63;;;10.90;99.90;;;;;;5017226;28;20637;-80
2021/09/06 04:55:55;;;;;;;13.20;8.60;;;10.90;99.90;;;;;;5035110;28;20188;-80
2021/09/06 04:58:20;;;;;;;12.20;8.63;;;10.90;99.90;;;;;;5034584;28;20269;-81
2021/09/06 05:00:46;;;;;;;9.83;8.80;;;10.90;99.90;;;;;;5034708;28;20256;-79
2021/09/06 05:03:11;;;;;;;9.77;8.53;;;10.90;99.90;;;;;;5034452;28;20200;-81
2021/09/06 05:05:38;;;;;;;11.80;7.50;;;10.90;99.90;;;;;;5034857;28;20601;-80
2021/09/06 05:08:04;;;;;;;10.83;9.00;;;10.90;99.90;;;;;;5033994;28;20276;-80
2021/09/06 05:10:30;;;;;;;12.20;9.60;;;10.90;99.90;;;;;;5033863;28;20421;-81
2021/09/06 05:12:55;;;;;;;12.10;9.00;;;10.90;99.90;;;;;;5033710;28;20266;-80
2021/09/06 05:15:21;;;;;;;12.13;9.57;;;10.90;99.90;;;;;;5033526;28;20452;-80
2021/09/06 05:17:46;;;;;;;10.37;9.10;;;10.90;99.90;;;;;;5033074;28;20177;-80
2021/09/06 05:20:12;;;;;;;11.23;9.23;;;11.00;99.90;;;;;;5032648;28;20213;-80
2021/09/06 05:22:37;;;;;;;15.93;8.73;;;11.00;99.90;;;;;;5030547;28;20205;-80
2021/09/06 05:25:03;;;;;;;12.60;9.33;;;11.00;99.90;;;;;;5014642;28;20239;-80
2021/09/06 05:27:29;;;;;;;12.17;9.37;;;11.00;99.90;;;;;;5015387;28;20185;-80
2021/09/06 05:29:55;;;;;;;12.20;9.40;;;11.10;99.90;;;;;;5032941;28;20417;-80
2021/09/06 05:32:20;;;;;;;12.13;9.30;;;11.10;99.90;;;;;;5030326;28;20332;-81
2021/09/06 05:34:46;;;;;;;9.70;8.30;;;11.20;99.90;;;;;;5014485;28;20284;-80
2021/09/06 05:37:11;;;;;;;12.50;8.20;;;11.30;99.90;;;;;;5032893;28;20236;-80
2021/09/06 05:39:37;;;;;;;11.60;9.00;;;11.40;99.90;;;;;;5014851;28;20217;-80
2021/09/06 05:42:03;;;;;;;12.27;9.40;;;11.50;99.90;;;;;;5018878;23;20233;-80
2021/09/06 05:44:29;;;;;;;13.40;8.60;;;11.60;99.90;;;;;;5019295;28;20187;-79
2021/09/06 05:46:58;;;;;;;11.00;8.93;;;11.80;99.90;;;;;;5016044;28;20452;-82
2021/09/06 05:49:28;;;;;;;10.43;9.33;;;11.90;99.90;;;;;;5018785;28;20420;-81
2021/09/06 05:51:54;;;;;;;11.27;9.50;;;12.10;99.90;;;;;;4997394;28;20445;-81
2021/09/06 05:54:20;;;;;;;15.20;9.33;;;12.20;99.90;;;;;;4999322;28;20422;-82
2021/09/06 05:56:45;;;;;;;9.07;8.13;;;12.50;99.90;;;;;;5015868;28;20496;-81
2021/09/06 05:59:11;;;;;;;13.17;9.43;;;12.60;99.90;;;;;;5017139;28;20245;-81
2021/09/06 06:01:36;;;;;;;11.17;8.83;;;12.70;99.90;;;;;;5015030;28;20249;-82
2021/09/06 06:04:02;;;;;;;10.30;9.13;;;12.90;99.90;;;;;;5017238;28;20192;-82
2021/09/06 06:06:28;;;;;;;10.50;8.53;;;13.10;99.90;;;;;;5016471;28;20253;-81
2021/09/06 06:08:53;;;;;;;11.77;9.20;;;13.50;99.90;;;;;;5016076;28;20213;-81
2021/09/06 06:11:19;;;;;;;9.77;8.63;;;13.90;99.90;;;;;;5015654;28;20437;-82
2021/09/06 06:13:44;;;;;;;12.43;7.67;;;14.50;99.90;;;;;;5015472;28;20194;-81
2021/09/06 06:16:10;;;;;;;14.10;8.87;;;15.00;99.90;;;;;;4997478;28;20599;-82
2021/09/06 06:18:36;;;;;;;14.27;10.27;;;15.60;99.90;;;;;;5015299;28;20726;-81
2021/09/06 06:21:01;;;;;;;10.00;8.47;;;16.00;99.90;;;;;;5016285;28;20220;-79
2021/09/06 06:23:27;;;;;;;9.67;8.67;;;16.50;99.90;;;;;;5015171;28;20185;-80
2021/09/06 06:25:52;;;;;;;14.00;9.37;;;16.90;99.90;;;;;;5016045;28;20174;-78
2021/09/06 06:28:18;;;;;;;14.50;8.77;;;17.40;99.90;;;;;;5032748;28;20174;-78
2021/09/06 06:30:43;;;;;;;9.00;8.10;;;17.80;99.90;;;;;;5032206;28;20184;-79
2021/09/06 06:33:09;;;;;;;12.90;8.37;;;18.30;99.90;;;;;;5031559;28;20162;-78
2021/09/06 06:35:34;;;;;;;10.80;8.80;;;18.70;99.90;;;;;;5031905;28;20178;-78
2021/09/06 06:38:01;;;;;;;15.70;8.47;;;19.00;99.90;;;;;;5031566;28;20380;-81
2021/09/06 06:40:27;;;;;;;13.07;9.70;;;19.40;99.90;;;;;;5032170;28;20672;-78
2021/09/06 06:42:52;;;;;;;13.27;9.90;;;19.60;99.90;;;;;;5032085;28;20515;-80
2021/09/06 06:45:18;;;;;;;12.60;9.80;;;20.00;99.90;;;;;;5031792;28;20174;-80
2021/09/06 06:47:43;;;;;;;17.10;10.00;;;20.20;99.90;;;;;;5034000;28;20305;-79
2021/09/06 06:50:09;;;;;;;19.83;10.33;;;20.50;99.90;;;;;;5032000;28;20240;-80
2021/09/06 06:52:35;;;;;;;12.73;8.47;;;20.60;99.90;;;;;;5030229;28;20685;-79
2021/09/06 06:55:01;;;;;;;17.50;9.40;;;20.70;99.90;;;;;;5030200;28;20504;-79
2021/09/06 06:57:26;;;;;;;12.23;8.60;;;20.80;99.90;;;;;;5030563;28;20444;-81
2021/09/06 06:59:52;;;;;;;16.50;9.70;;;21.10;99.90;;;;;;5031007;28;20212;-79
2021/09/06 07:02:19;;;;;;;15.97;9.73;;;21.30;99.90;;;;;;5030689;28;20201;-80
2021/09/06 07:04:44;;;;;;;11.50;9.80;;;21.40;99.90;;;;;;5030750;28;20174;-80
2021/09/06 07:07:10;;;;;;;13.40;9.37;;;21.70;99.90;;;;;;5031073;28;20447;-81
2021/09/06 07:09:35;;;;;;;19.07;9.33;;;21.80;99.90;;;;;;5012848;28;20198;-80
2021/09/06 07:12:01;;;;;;;13.00;9.00;;;22.00;99.90;;;;;;5029063;28;20202;-79
2021/09/06 07:14:27;;;;;;;13.20;9.97;;;22.10;99.90;;;;;;5032653;28;20185;-81
2021/09/06 07:16:53;;;;;;;12.77;9.10;;;22.30;99.90;;;;;;5030452;28;20424;-80
2021/09/06 07:19:18;;;;;;;10.40;8.57;;;22.50;99.90;;;;;;5027912;28;20565;-80
2021/09/06 07:21:43;;;;;;;14.27;8.57;;;22.60;99.90;;;;;;5009475;28;20264;-82
2021/09/06 07:24:09;;;;;;;13.63;8.43;;;22.90;99.90;;;;;;5031987;28;20185;-78
2021/09/06 07:26:34;;;;;;;11.50;9.33;;;23.00;99.90;;;;;;5031152;28;20181;-78
2021/09/06 07:29:00;;;;;;;11.57;8.80;;;23.00;99.90;;;;;;5032109;28;20190;-81
2021/09/06 07:31:26;;;;;;;27.53;9.60;;;23.20;99.90;;;;;;5034120;28;20232;-81
2021/09/06 07:33:51;;;;;;;11.77;8.90;;;23.50;99.90;;;;;;5034098;28;20177;-81
2021/09/06 07:36:17;;;;;;;12.07;8.40;;;23.60;99.90;;;;;;5034201;28;20174;-81
2021/09/06 07:38:42;;;;;;;14.23;8.33;;;23.80;99.90;;;;;;5033775;28;20201;-80
2021/09/06 07:41:08;;;;;;;9.50;8.23;;;24.00;99.90;;;;;;5024597;28;20210;-80
2021/09/06 07:43:34;;;;;;;10.47;8.67;;;24.10;99.90;;;;;;5013714;28;20265;-80
2021/09/06 07:45:59;;;;;;;13.33;8.50;;;24.40;99.90;;;;;;5014654;28;20173;-80
2021/09/06 07:48:25;;;;;;;11.97;7.53;;;24.60;99.90;;;;;;4996714;28;20209;-81
2021/09/06 07:50:50;;;;;;;15.23;8.37;;;24.60;99.90;;;;;;5014083;28;20552;-80
2021/09/06 07:53:16;;;;;;;10.73;7.40;;;24.90;99.90;;;;;;5014348;28;20167;-80
2021/09/06 07:55:43;;;;;;;14.33;8.50;;;25.10;99.90;;;;;;4996603;28;20644;-81
2021/09/06 07:58:09;;;;;;;8.23;7.23;;;25.10;99.90;;;;;;5014335;28;20178;-80
2021/09/06 08:00:34;;;;;;;13.53;7.90;;;25.30;99.90;;;;;;5014162;28;20563;-81
2021/09/06 08:02:59;;;;;;;11.93;7.70;;;25.50;99.90;;;;;;4996492;28;20189;-81
2021/09/06 08:05:29;;;;;;;16.23;8.80;;;25.70;99.90;;;;;;5009735;28;20200;-80
2021/09/06 08:07:55;;;;;;;10.60;7.50;;;25.80;99.90;;;;;;5019387;28;20635;-79
2021/09/06 08:10:20;;;;;;;12.17;7.37;;;26.00;99.90;;;;;;5033537;28;20436;-80
2021/09/06 08:12:46;;;;;;;9.60;7.53;;;26.20;99.90;;;;;;5031390;28;20698;-80
2021/09/06 08:15:12;;;;;;;12.10;7.93;;;26.40;99.90;;;;;;5033354;28;20177;-79
2021/09/06 08:17:38;;;;;;;14.13;7.57;;;26.40;99.90;;;;;;5031828;28;20971;-80
2021/09/06 08:20:07;;;;;;;11.00;7.40;;;26.30;99.90;;;;;;5034179;28;20700;-80
2021/09/06 08:22:33;;;;;;;8.43;7.63;;;26.50;99.90;;;;;;5015500;28;20821;-81
2021/09/06 08:25:00;;;;;;;8.00;7.00;;;26.60;99.90;;;;;;5032761;28;20413;-80
2021/09/06 08:27:26;;;;;;;15.30;7.60;;;26.80;99.90;;;;;;5033565;28;20198;-80
2021/09/06 08:29:51;;;;;;;9.47;7.50;;;26.80;99.90;;;;;;5033413;28;20894;-80
2021/09/06 08:32:17;;;;;;;8.40;6.50;;;26.80;99.90;;;;;;5033011;28;20198;-80
2021/09/06 08:34:42;;;;;;;9.10;8.20;;;26.90;99.90;;;;;;5015044;28;20268;-80
2021/09/06 08:37:08;;;;;;;12.47;7.20;;;27.00;99.90;;;;;;5033209;28;20200;-80
2021/09/06 08:39:36;;;;;;;10.67;8.10;;;27.10;99.90;;;;;;5015527;28;20210;-79
2021/09/06 08:42:02;;;;;;;11.60;7.90;;;26.90;99.90;;;;;;5015649;28;20472;-79
2021/09/06 08:44:28;;;;;;;12.47;7.20;;;27.20;99.90;;;;;;5032790;28;20562;-80
2021/09/06 08:46:54;;;;;;;7.70;6.73;;;27.30;99.90;;;;;;5032719;28;20221;-79
2021/09/06 08:49:20;;;;;;;12.67;7.77;;;27.40;99.90;;;;;;5015678;28;20268;-80
2021/09/06 08:51:46;;;;;;;10.13;7.60;;;27.50;99.90;;;;;;5033271;28;20490;-79
2021/09/06 08:54:12;;;;;;;11.83;7.20;;;27.20;99.90;;;;;;5015237;28;20427;-80
2021/09/06 08:56:38;;;;;;;9.27;6.70;;;27.30;99.90;;;;;;5015262;28;20504;-79
2021/09/06 08:59:07;;;;;;;8.97;6.50;;;27.50;99.90;;;;;;5014908;28;20202;-80
2021/09/06 09:01:37;;;;;;;10.50;6.83;;;27.60;99.90;;;;;;5014940;28;21024;-80
2021/09/06 09:04:24;;;;;;;10.07;6.70;;;28.10;99.90;;;;;;5033208;28;20921;-80
2021/09/06 09:06:52;;;;;;;8.07;6.33;;;28.20;99.90;;;;;;5032468;28;20760;-78
2021/09/06 09:09:26;;;;;;;12.17;5.23;;;28.20;99.90;;;;;;5032754;28;20421;-79
2021/09/06 09:12:12;;;;;;;7.70;6.97;;;28.10;99.90;;;;;;5032469;28;20428;-80
2021/09/06 09:14:41;;;;;;;8.60;6.40;;;28.10;99.90;;;;;;5032692;28;20412;-80
2021/09/06 09:17:08;;;;;;;12.60;6.60;;;28.10;99.90;;;;;;5032231;28;20417;-79
2021/09/06 09:19:35;;;;;;;7.37;6.00;;;28.30;99.90;;;;;;5032535;28;20953;-79
2021/09/06 09:22:07;;;;;;;7.17;6.03;;;28.60;99.90;;;;;;5035161;28;20461;-79
2021/09/06 09:24:37;;;;;;;10.83;6.93;;;29.10;99.90;;;;;;5032776;28;20459;-80
2021/09/06 09:27:08;;;;;;;8.10;7.30;;;29.20;99.90;;;;;;5032315;28;20483;-80
2021/09/06 09:29:35;;;;;;;12.60;6.63;;;29.60;99.90;;;;;;5032323;28;20792;-79
2021/09/06 09:32:07;;;;;;;17.47;7.03;;;29.60;99.90;;;;;;5032539;28;20432;-79
2021/09/06 09:34:38;;;;;;;9.60;5.73;;;29.80;99.90;;;;;;5014145;28;20863;-79
2021/09/06 09:37:04;;;;;;;7.17;6.47;;;29.70;99.90;;;;;;5032035;28;20436;-79
2021/09/06 09:39:32;;;;;;;10.00;6.90;;;29.80;99.90;;;;;;5032405;28;20456;-80
2021/09/06 09:42:10;;;;;;;6.23;5.40;;;29.60;99.90;;;;;;5032882;28;20300;-80
2021/09/06 09:44:47;;;;;;;7.47;6.43;;;29.50;99.90;;;;;;5032417;28;20411;-80
2021/09/06 09:47:16;;;;;;;8.10;6.50;;;29.60;99.90;;;;;;5031896;28;20512;-79
2021/09/06 09:49:43;;;;;;;7.40;6.40;;;29.60;99.90;;;;;;5032305;28;20408;-79
2021/09/06 09:52:10;;;;;;;8.30;6.60;;;29.90;99.90;;;;;;5032199;28;20433;-79
2021/09/06 09:54:35;;;;;;;10.30;6.80;;;30.00;99.90;;;;;;5032350;28;20424;-79
2021/09/06 09:57:01;;;;;;;7.87;6.73;;;29.90;99.90;;;;;;5031648;28;20413;-80
2021/09/06 09:59:26;;;;;;;11.10;6.70;;;29.80;99.90;;;;;;5032104;28;20212;-80
2021/09/06 10:02:09;;;;;;;6.50;6.00;;;30.30;99.90;;;;;;5032269;28;20197;-80
2021/09/06 10:04:53;;;;;;;8.67;6.57;;;30.40;99.90;;;;;;5032359;28;20178;-80
2021/09/06 10:07:20;;;;;;;11.37;7.23;;;30.60;99.90;;;;;;5031744;28;20436;-80
2021/09/06 10:09:47;;;;;;;8.10;7.30;;;30.70;99.90;;;;;;5032562;28;20436;-79
2021/09/06 10:12:20;;;;;;;6.90;6.30;;;30.50;99.90;;;;;;5012706;28;20451;-79
2021/09/06 10:14:56;;;;;;;7.30;6.60;;;30.70;99.90;;;;;;5032251;28;20951;-78
2021/09/06 10:17:40;;;;;;;6.77;6.20;;;30.70;99.90;;;;;;5016718;28;20424;-78
2021/09/06 10:20:11;;;;;;;7.57;6.80;;;30.80;99.90;;;;;;5031814;28;20460;-79
2021/09/06 10:22:37;;;;;;;9.40;6.53;;;30.70;99.90;;;;;;5031803;28;20952;-78
2021/09/06 10:25:05;;;;;;;7.43;6.83;;;30.60;99.90;;;;;;5032051;28;20466;-79
2021/09/06 10:27:35;;;;;;;8.50;7.60;;;30.70;99.90;;;;;;5031541;28;20503;-78
2021/09/06 10:30:07;;;;;;;6.93;6.13;;;31.00;99.90;;;;;;5031771;28;20969;-79
2021/09/06 10:32:42;;;;;;;7.70;7.00;;;30.80;99.90;;;;;;5013892;28;20944;-80
2021/09/06 10:35:22;;;;;;;11.20;7.37;;;30.40;99.90;;;;;;5013660;28;20432;-77
2021/09/06 10:38:05;;;;;;;7.60;7.00;;;30.70;99.90;;;;;;5031467;28;20762;-78
2021/09/06 10:40:35;;;;;;;8.20;7.40;;;30.50;99.90;;;;;;5031714;28;20467;-78
2021/09/06 10:43:15;;;;;;;9.53;7.43;;;30.40;99.90;;;;;;5031984;28;20428;-79
2021/09/06 10:45:42;;;;;;;11.10;6.40;;;30.40;99.90;;;;;;5031698;28;20404;-79
2021/09/06 10:48:08;;;;;;;7.17;6.47;;;30.40;99.90;;;;;;5033976;28;20458;-78
2021/09/06 10:50:37;;;;;;;7.50;6.80;;;30.80;99.90;;;;;;5035794;28;20412;-78
2021/09/06 10:53:02;;;;;;;8.70;6.80;;;30.90;99.90;;;;;;5035538;28;20416;-79
2021/09/06 10:55:28;;;;;;;8.30;7.17;;;30.90;99.90;;;;;;5035266;28;20419;-78
2021/09/06 10:57:54;;;;;;;7.30;6.60;;;30.80;99.90;;;;;;5017423;28;20296;-79
2021/09/06 11:00:22;;;;;;;9.20;6.60;;;30.80;99.90;;;;;;5035000;28;20464;-80
2021/09/06 11:02:52;;;;;;;9.37;7.20;;;30.60;99.90;;;;;;5035557;28;20206;-79
2021/09/06 11:05:23;;;;;;;8.20;7.20;;;30.50;99.90;;;;;;5035550;28;20404;-79
2021/09/06 11:07:50;;;;;;;7.80;7.00;;;30.60;99.90;;;;;;5035633;28;20424;-79
2021/09/06 11:10:22;;;;;;;8.17;7.20;;;30.20;99.90;;;;;;5035687;28;20944;-79
2021/09/06 11:13:00;;;;;;;7.00;6.40;;;29.80;99.90;;;;;;5034833;28;20512;-79
2021/09/06 11:15:31;;;;;;;8.63;7.83;;;29.60;99.90;;;;;;5034873;28;20408;-78
2021/09/06 11:18:00;;;;;;;8.30;7.50;;;29.90;99.90;;;;;;5035123;28;20922;-78
2021/09/06 11:20:27;;;;;;;8.67;7.80;;;30.00;99.90;;;;;;5034690;28;20456;-78
2021/09/06 11:22:58;;;;;;;9.87;7.67;;;30.30;99.90;;;;;;5034654;28;20419;-78
2021/09/06 11:25:26;;;;;;;8.43;6.27;;;30.00;99.90;;;;;;5034601;28;20405;-78
2021/09/06 11:27:53;;;;;;;9.40;7.73;;;29.90;99.90;;;;;;5034343;28;20439;-78
2021/09/06 11:30:23;;;;;;;7.70;6.73;;;29.90;99.90;;;;;;5034763;28;20932;-79
2021/09/06 11:32:50;;;;;;;8.17;6.83;;;30.00;99.90;;;;;;5016761;28;20448;-78
2021/09/06 11:35:17;;;;;;;6.77;6.00;;;30.00;99.90;;;;;;5034461;28;20441;-78
2021/09/06 11:37:42;;;;;;;7.10;6.40;;;29.70;99.90;;;;;;5016757;28;20431;-78
2021/09/06 11:40:08;;;;;;;8.63;7.67;;;29.80;99.90;;;;;;5034118;28;20563;-79
2021/09/06 11:42:36;;;;;;;7.83;7.03;;;29.60;99.90;;;;;;5034276;28;20626;-78
2021/09/06 11:45:03;;;;;;;8.20;6.83;;;29.40;99.90;;;;;;5034696;28;20162;-78
2021/09/06 11:47:29;;;;;;;9.30;8.40;;;28.60;99.90;;;;;;5034031;28;20416;-79
2021/09/06 11:49:58;;;;;;;8.00;7.20;;;28.20;99.90;;;;;;5034302;28;20417;-78
2021/09/06 11:52:39;;;;;;;8.30;7.00;;;28.10;99.90;;;;;;5034370;28;20440;-78
2021/09/06 11:55:13;;;;;;;7.33;6.50;;;28.20;99.90;;;;;;5034820;28;20439;-79
2021/09/06 11:57:38;;;;;;;6.93;6.33;;;28.30;99.90;;;;;;5033763;28;20778;-79
2021/09/06 12:00:05;;;;;;;14.13;7.20;;;28.30;99.90;;;;;;5033879;28;20456;-79
2021/09/06 12:02:31;;;;;;;8.40;7.03;;;28.00;99.90;;;;;;5033887;28;20566;-77
2021/09/06 12:05:14;;;;;;;7.50;6.13;;;27.80;99.90;;;;;;5034210;28;20413;-79
2021/09/06 12:07:53;;;;;;;10.03;8.07;;;27.70;99.90;;;;;;5034023;28;20786;-79
2021/09/06 12:10:34;;;;;;;10.60;6.73;;;27.60;99.90;;;;;;5014854;28;20428;-79
2021/09/06 12:13:04;;;;;;;8.80;6.97;;;27.80;99.90;;;;;;5033932;28;20416;-79
2021/09/06 12:15:32;;;;;;;6.40;5.80;;;27.80;99.90;;;;;;5016005;28;20423;-78
2021/09/06 12:18:12;;;;;;;6.80;6.20;;;27.70;99.90;;;;;;5015895;28;20421;-78
2021/09/06 12:20:40;;;;;;;6.53;6.00;;;27.80;99.90;;;;;;5015931;28;20468;-78
2021/09/06 12:23:11;;;;;;;12.10;6.93;;;28.00;99.90;;;;;;5033809;28;20440;-78
2021/09/06 12:25:39;;;;;;;7.17;6.57;;;28.20;99.90;;;;;;5033865;28;20507;-79
2021/09/06 12:28:09;;;;;;;7.70;6.20;;;28.30;99.90;;;;;;5033629;28;20486;-78
2021/09/06 12:30:35;;;;;;;7.47;6.03;;;28.30;99.90;;;;;;5015873;28;20437;-79
2021/09/06 12:33:01;;;;;;;7.67;7.00;;;28.40;99.90;;;;;;5033290;28;20417;-79
2021/09/06 12:35:27;;;;;;;6.43;5.87;;;28.50;99.90;;;;;;5015691;28;20192;-78
2021/09/06 12:37:52;;;;;;;7.17;6.20;;;28.40;99.90;;;;;;5033035;28;20503;-78
2021/09/06 12:40:18;;;;;;;9.47;6.87;;;28.50;99.90;;;;;;5033282;28;20205;-78
2021/09/06 12:42:48;;;;;;;7.77;6.97;;;28.50;99.90;;;;;;5033192;28;20217;-78
2021/09/06 12:45:14;;;;;;;7.20;6.40;;;28.40;99.90;;;;;;5015388;28;20181;-79
2021/09/06 12:47:40;;;;;;;7.03;6.40;;;28.20;99.90;;;;;;5033402;28;20417;-78
2021/09/06 12:50:06;;;;;;;7.13;6.43;;;27.90;99.90;;;;;;5033870;28;20432;-80
2021/09/06 12:52:31;;;;;;;7.90;6.53;;;27.50;99.90;;;;;;5033134;28;20212;-79
2021/09/06 12:54:57;;;;;;;8.67;7.73;;;27.10;99.90;;;;;;5034074;28;20178;-79
2021/09/06 12:57:22;;;;;;;7.53;6.80;;;26.80;99.90;;;;;;5033112;28;20193;-79
2021/09/06 12:59:48;;;;;;;7.57;6.40;;;26.30;99.90;;;;;;5015461;28;20304;-79
2021/09/06 13:02:13;;;;;;;8.80;7.80;;;26.30;99.90;;;;;;5032786;28;20198;-80
2021/09/06 13:04:39;;;;;;;8.10;6.80;;;26.40;99.90;;;;;;5015792;28;20580;-79
2021/09/06 13:07:04;;;;;;;7.00;6.23;;;26.40;99.90;;;;;;5032900;28;20596;-80
2021/09/06 13:09:30;;;;;;;6.90;6.20;;;26.50;99.90;;;;;;5032229;28;20563;-79
2021/09/06 13:11:56;;;;;;;10.23;6.53;;;26.40;99.90;;;;;;5032601;28;20214;-78
2021/09/06 13:14:21;;;;;;;6.77;6.17;;;26.50;99.90;;;;;;5015099;28;20185;-79
2021/09/06 13:16:47;;;;;;;7.30;6.60;;;26.50;99.90;;;;;;5032437;28;20177;-78
2021/09/06 13:19:12;;;;;;;8.03;6.87;;;26.60;99.90;;;;;;5032090;28;20229;-79
2021/09/06 13:21:38;;;;;;;7.53;6.83;;;26.60;99.90;;;;;;5014668;28;20197;-78
2021/09/06 13:24:04;;;;;;;6.03;5.43;;;26.70;99.90;;;;;;5032493;28;20207;-79
2021/09/06 13:26:29;;;;;;;12.13;6.90;;;26.90;99.90;;;;;;5032537;28;20245;-79
2021/09/06 13:28:55;;;;;;;7.23;5.70;;;27.00;99.90;;;;;;5032924;28;20178;-78
2021/09/06 13:31:20;;;;;;;7.17;6.47;;;27.10;99.90;;;;;;5032479;28;20206;-78
2021/09/06 13:33:46;;;;;;;6.93;6.37;;;27.10;99.90;;;;;;5032338;28;20190;-78
2021/09/06 13:36:12;;;;;;;8.37;7.33;;;27.10;99.90;;;;;;5031899;28;20181;-78
2021/09/06 13:38:37;;;;;;;10.53;5.97;;;27.20;99.90;;;;;;5032304;28;20212;-78
2021/09/06 13:41:03;;;;;;;7.83;7.03;;;27.20;99.90;;;;;;5031952;28;20222;-78
2021/09/06 13:43:29;;;;;;;12.60;5.70;;;27.10;99.90;;;;;;5032218;28;20666;-79
2021/09/06 13:45:56;;;;;;;7.93;6.60;;;27.00;99.90;;;;;;5014566;28;20178;-80
2021/09/06 13:48:21;;;;;;;12.73;6.67;;;26.90;99.90;;;;;;5031994;28;20662;-79
2021/09/06 13:50:47;;;;;;;7.03;6.20;;;26.90;99.90;;;;;;5032220;28;20440;-78
2021/09/06 13:53:12;;;;;;;9.20;6.10;;;26.90;99.90;;;;;;5031499;28;20190;-79
2021/09/06 13:55:40;;;;;;;8.80;6.57;;;26.90;99.90;;;;;;5031850;28;20573;-79
2021/09/06 13:58:05;;;;;;;8.10;6.03;;;27.00;99.90;;;;;;5031752;28;20631;-79
2021/09/06 14:00:31;;;;;;;9.90;6.20;;;27.00;99.90;;;;;;5031742;28;20507;-80
2021/09/06 14:02:56;;;;;;;7.83;5.77;;;26.80;99.90;;;;;;5031945;28;20257;-79
2021/09/06 14:05:22;;;;;;;6.30;5.50;;;26.60;99.90;;;;;;5031866;28;20197;-79
2021/09/06 14:07:47;;;;;;;7.43;6.73;;;26.60;99.90;;;;;;5031488;28;20170;-79
2021/09/06 14:10:13;;;;;;;6.90;6.30;;;26.60;99.90;;;;;;5031486;28;20182;-78
2021/09/06 14:12:38;;;;;;;5.90;5.40;;;26.60;99.90;;;;;;5031437;28;20206;-78
2021/09/06 14:15:05;;;;;;;9.70;7.10;;;26.70;99.90;;;;;;5032026;28;20261;-79
2021/09/06 14:17:30;;;;;;;6.87;6.27;;;26.80;99.90;;;;;;5032125;28;20181;-79
2021/09/06 14:19:56;;;;;;;7.60;6.90;;;26.80;99.90;;;;;;5031883;28;20460;-78
2021/09/06 14:22:22;;;;;;;7.33;6.30;;;26.70;99.90;;;;;;5018445;28;20194;-78
2021/09/06 14:24:47;;;;;;;8.13;5.40;;;26.60;99.40;;;;;;5038293;28;20174;-78
2021/09/06 14:27:13;;;;;;;6.40;5.50;;;26.60;99.10;;;;;;5020361;28;20261;-78
2021/09/06 14:29:39;;;;;;;6.10;5.60;;;26.50;99.30;;;;;;5036517;28;20189;-80
2021/09/06 14:32:06;;;;;;;8.00;6.10;;;26.40;99.50;;;;;;5038536;28;20439;-78
2021/09/06 14:34:32;;;;;;;6.07;5.57;;;26.40;99.90;;;;;;5024599;28;20181;-79
2021/09/06 14:36:58;;;;;;;10.13;5.47;;;26.20;99.40;;;;;;5032511;28;20420;-80
2021/09/06 14:39:23;;;;;;;6.30;5.70;;;26.10;99.00;;;;;;5019774;28;20448;-80
2021/09/06 14:41:49;;;;;;;7.80;5.70;;;26.00;98.90;;;;;;5025100;28;20217;-80
2021/09/06 14:44:14;;;;;;;6.43;5.83;;;25.90;98.20;;;;;;5033449;28;20185;-80
2021/09/06 14:46:43;;;;;;;6.93;5.93;;;25.80;98.60;;;;;;5026158;28;20286;-79
2021/09/06 14:49:08;;;;;;;8.07;5.93;;;25.80;99.90;;;;;;5030990;28;20181;-79
2021/09/06 14:51:34;;;;;;;5.57;5.07;;;25.90;99.90;;;;;;5015252;28;20528;-79
2021/09/06 14:53:59;;;;;;;6.27;5.63;;;25.90;99.30;;;;;;5002157;28;20194;-79
2021/09/06 14:56:25;;;;;;;7.60;5.73;;;25.90;99.80;;;;;;5014866;28;20248;-79
2021/09/06 14:58:50;;;;;;;6.67;5.97;;;25.90;99.90;;;;;;5017501;28;20198;-80
2021/09/06 15:01:16;;;;;;;8.60;6.57;;;25.90;99.90;;;;;;5023197;28;20206;-79
2021/09/06 15:03:41;;;;;;;6.97;6.27;;;25.90;99.80;;;;;;5023930;28;20210;-79
2021/09/06 15:06:07;;;;;;;10.03;6.83;;;25.90;99.90;;;;;;4997669;28;20942;-78
2021/09/06 15:08:32;;;;;;;6.93;5.47;;;25.80;99.90;;;;;;5027945;28;20593;-79
2021/09/06 15:10:58;;;;;;;8.37;6.60;;;25.70;99.90;;;;;;5032877;28;20279;-78
2021/09/06 15:13:23;;;;;;;10.17;6.67;;;25.70;99.90;;;;;;5034542;28;20304;-78
2021/09/06 15:15:49;;;;;;;8.20;5.60;;;25.60;99.90;;;;;;5014839;28;20576;-79
2021/09/06 15:18:15;;;;;;;6.67;5.97;;;25.60;99.50;;;;;;5021948;28;20229;-79
2021/09/06 15:20:41;;;;;;;8.87;7.03;;;25.60;99.90;;;;;;5026656;28;21037;-79
2021/09/06 15:23:07;;;;;;;8.90;6.97;;;25.60;99.90;;;;;;5021856;28;20484;-79
2021/09/06 15:25:32;;;;;;;9.53;7.37;;;25.60;99.90;;;;;;5019927;28;20186;-78
2021/09/06 15:27:58;;;;;;;6.80;6.10;;;25.50;99.90;;;;;;5014862;28;20236;-76
2021/09/06 15:30:32;;;;;;;9.50;6.57;;;25.60;99.60;;;;;;5014774;28;20182;-76
2021/09/06 15:32:58;;;;;;;6.90;5.90;;;25.60;99.70;;;;;;5013191;28;20187;-77
2021/09/06 15:35:24;;;;;;;7.17;6.30;;;25.60;99.90;;;;;;4994983;28;20433;-76
2021/09/06 15:37:54;;;;;;;8.40;7.50;;;25.60;99.90;;;;;;5011150;28;20190;-76
2021/09/06 15:40:20;;;;;;;10.47;5.70;;;25.60;99.90;;;;;;4994340;28;20552;-76
2021/09/06 15:42:45;;;;;;;9.73;6.60;;;25.60;99.90;;;;;;5029975;28;20547;-76
2021/09/06 15:45:11;;;;;;;6.10;5.13;;;25.60;99.90;;;;;;5015924;28;20532;-75
2021/09/06 15:47:37;;;;;;;7.90;6.33;;;25.60;99.60;;;;;;5011070;28;20281;-76
2021/09/06 15:50:03;;;;;;;6.23;5.63;;;25.60;99.90;;;;;;4993540;28;20516;-76
2021/09/06 15:52:29;;;;;;;7.97;6.53;;;25.60;99.60;;;;;;5011301;28;20206;-76
2021/09/06 15:54:54;;;;;;;7.50;6.40;;;25.50;99.70;;;;;;5011173;28;20421;-76
2021/09/06 15:57:24;;;;;;;7.87;6.53;;;25.50;99.90;;;;;;5017006;28;20213;-76
2021/09/06 15:59:50;;;;;;;6.57;5.97;;;25.40;99.90;;;;;;5031709;28;20205;-76
2021/09/06 16:02:15;;;;;;;7.43;6.83;;;25.40;99.90;;;;;;5029591;28;20436;-76
2021/09/06 16:04:41;;;;;;;7.17;6.43;;;25.40;99.90;;;;;;5029412;28;20205;-76
2021/09/06 16:07:06;;;;;;;7.80;6.23;;;25.40;99.90;;;;;;5031285;28;20304;-75
2021/09/06 16:09:32;;;;;;;7.53;6.30;;;25.40;99.80;;;;;;5014131;28;20236;-76
2021/09/06 16:11:58;;;;;;;6.53;5.93;;;25.30;99.90;;;;;;5010982;28;20617;-75
2021/09/06 16:14:23;;;;;;;6.83;6.23;;;25.20;99.90;;;;;;5019999;28;20178;-76
2021/09/06 16:16:49;;;;;;;7.43;6.73;;;25.20;99.90;;;;;;5029300;28;20355;-77
2021/09/06 16:19:14;;;;;;;8.40;5.83;;;25.20;99.90;;;;;;5010309;28;20295;-76
2021/09/06 16:21:40;;;;;;;8.47;6.63;;;25.20;99.90;;;;;;5010562;28;20194;-75
2021/09/06 16:24:06;;;;;;;8.53;6.37;;;25.20;99.90;;;;;;5010289;28;20178;-74
2021/09/06 16:26:32;;;;;;;9.50;6.00;;;25.10;99.90;;;;;;5010995;28;20185;-75
2021/09/06 16:28:58;;;;;;;8.60;6.27;;;25.10;99.90;;;;;;5018685;28;20417;-75
2021/09/06 16:31:23;;;;;;;6.83;6.20;;;25.10;99.90;;;;;;5028561;28;20202;-75
2021/09/06 16:33:49;;;;;;;10.33;6.67;;;25.10;99.90;;;;;;5012447;28;20324;-73
2021/09/06 16:36:14;;;;;;;7.20;6.50;;;25.00;99.90;;;;;;5028941;28;20198;-74
2021/09/06 16:38:40;;;;;;;6.80;6.13;;;25.00;99.90;;;;;;5028493;28;20197;-74
2021/09/06 16:41:06;;;;;;;7.00;6.30;;;24.90;99.90;;;;;;5029847;28;20296;-75
2021/09/06 16:43:31;;;;;;;13.30;6.80;;;24.90;99.90;;;;;;5017143;28;20209;-75
2021/09/06 16:45:58;;;;;;;7.80;7.00;;;24.80;99.90;;;;;;5009756;28;20257;-75
2021/09/06 16:48:23;;;;;;;8.13;7.07;;;24.80;99.90;;;;;;5025059;28;20185;-74
2021/09/06 16:50:49;;;;;;;7.93;6.83;;;24.80;99.90;;;;;;5023174;28;20825;-75
2021/09/06 16:53:14;;;;;;;7.77;7.07;;;24.70;99.90;;;;;;5015261;28;20199;-75
2021/09/06 16:55:41;;;;;;;10.60;6.90;;;24.70;99.90;;;;;;5009671;28;20197;-75
2021/09/06 16:58:07;;;;;;;8.93;6.53;;;24.60;99.90;;;;;;5009313;28;20186;-75
2021/09/06 17:00:32;;;;;;;9.03;7.17;;;24.50;99.90;;;;;;5009646;28;20469;-74
2021/09/06 17:02:58;;;;;;;7.80;6.30;;;24.40;99.90;;;;;;5009705;28;20186;-75
2021/09/06 17:05:25;;;;;;;7.17;6.47;;;24.30;99.90;;;;;;5009433;28;20189;-75
2021/09/06 17:07:50;;;;;;;7.67;6.50;;;24.20;99.90;;;;;;5009664;28;20188;-74
2021/09/06 17:10:17;;;;;;;10.60;7.50;;;24.20;99.90;;;;;;5017036;28;20424;-75
2021/09/06 17:12:43;;;;;;;10.97;7.43;;;24.00;99.90;;;;;;4999395;28;20214;-73